Time;durP1;ratioP1;P1;durP2;ratioP2;P2;SDS_P1;SDS_P2;PMS_P1;PMS_P2;Temp;Humidity;BMP_temperature;BMP_pressure;BME280_temperature;BME280_humidity;BME280_pressure;Samples;Min_cycle;Max_cycle;Signal;HPM_P1;HPM_P2
2022/06/12 00:00:25;;;;;;;8.60;4.07;;;;;;;;;;4194657;34;20197;-67
2022/06/12 00:02:51;;;;;;;4.37;3.90;;;;;;;;;;4206771;34;20178;-66
2022/06/12 00:32:17;;;;;;;5.00;2.92;;;;;;;;;;4891177;28;20153;-61
2022/06/12 00:34:49;;;;;;;3.28;2.70;;;;;;;;;;4218461;34;20495;-60
2022/06/12 00:37:18;;;;;;;12.57;2.70;;;;;;;;;;4219048;34;20497;-60
2022/06/12 00:39:46;;;;;;;3.12;2.60;;;;;;;;;;4218984;34;20090;-63
2022/06/12 00:42:40;;;;;;;3.03;2.58;;;;;;;;;;4218983;34;20113;-63
2022/06/12 00:45:28;;;;;;;3.83;3.42;;;;;;;;;;4218359;34;20128;-61
2022/06/12 00:48:05;;;;;;;5.35;2.50;;;;;;;;;;4219153;34;20193;-61
2022/06/12 00:50:32;;;;;;;8.43;2.75;;;;;;;;;;4218265;34;20122;-61
2022/06/12 00:52:58;;;;;;;4.40;2.62;;;;;;;;;;4218963;34;20102;-61
2022/06/12 00:55:37;;;;;;;4.45;2.30;;;;;;;;;;4205967;34;20181;-62
2022/06/12 00:58:08;;;;;;;6.68;2.80;;;;;;;;;;4219096;34;20125;-62
2022/06/12 01:00:34;;;;;;;4.40;2.30;;;;;;;;;;4218853;34;20131;-62
2022/06/12 01:03:01;;;;;;;2.45;2.25;;;;;;;;;;4218664;34;20541;-63
2022/06/12 01:08:13;;;;;;;3.35;2.33;;;;;;;;;;4218939;34;20212;-63
2022/06/12 01:10:41;;;;;;;4.37;2.53;;;;;;;;;;4218713;34;20185;-63
2022/06/12 01:13:20;;;;;;;7.28;3.17;;;;;;;;;;4218796;34;20485;-63
2022/06/12 01:15:50;;;;;;;4.78;1.87;;;;;;;;;;4218906;34;20097;-63
2022/06/12 01:18:20;;;;;;;3.55;2.00;;;;;;;;;;4205919;34;20117;-63
2022/06/12 01:21:25;;;;;;;3.10;1.95;;;;;;;;;;4205795;34;20612;-62
2022/06/12 01:24:15;;;;;;;5.30;1.92;;;;;;;;;;4205299;34;20122;-62
2022/06/12 01:27:25;;;;;;;3.33;2.10;;;;;;;;;;4205631;34;20105;-62
2022/06/12 01:30:12;;;;;;;4.07;2.15;;;;;;;;;;4218469;34;20204;-61
2022/06/12 01:32:48;;;;;;;3.30;2.20;;;;;;;;;;4205473;34;20113;-61
2022/06/12 01:35:24;;;;;;;2.17;1.98;;;;;;;;;;4218473;34;20131;-61
2022/06/12 01:37:58;;;;;;;2.83;1.90;;;;;;;;;;4218817;34;20113;-61
2022/06/12 01:40:33;;;;;;;3.45;2.12;;;;;;;;;;4218721;34;20113;-61
2022/06/12 01:43:13;;;;;;;3.42;2.60;;;;;;;;;;4218368;34;20121;-62
2022/06/12 01:46:01;;;;;;;2.08;1.87;;;;;;;;;;4218395;34;20129;-61
2022/06/12 01:48:43;;;;;;;2.72;2.20;;;;;;;;;;4205472;34;20108;-61
2022/06/12 01:51:29;;;;;;;5.90;2.70;;;;;;;;;;4218559;34;20542;-62
2022/06/12 01:54:03;;;;;;;4.43;2.20;;;;;;;;;;4205268;34;20170;-62
2022/06/12 01:56:47;;;;;;;2.23;1.77;;;;;;;;;;4218406;34;20743;-61
2022/06/12 01:59:32;;;;;;;6.93;2.22;;;;;;;;;;4218518;34;20144;-61
2022/06/12 02:02:38;;;;;;;2.20;1.98;;;;;;;;;;4218028;34;20241;-61
2022/06/12 02:05:33;;;;;;;2.10;1.90;;;;;;;;;;4217866;34;20101;-61
2022/06/12 02:08:10;;;;;;;2.70;1.80;;;;;;;;;;4212956;34;20229;-62
2022/06/12 02:10:57;;;;;;;5.18;2.10;;;;;;;;;;4205260;34;20117;-62
2022/06/12 02:13:30;;;;;;;7.10;2.15;;;;;;;;;;4205680;34;20212;-61
2022/06/12 02:16:03;;;;;;;5.93;2.12;;;;;;;;;;4205200;34;20098;-61
2022/06/12 02:18:50;;;;;;;2.85;2.00;;;;;;;;;;4218077;34;20132;-61
2022/06/12 02:21:19;;;;;;;2.30;1.90;;;;;;;;;;4205308;34;20118;-62
2022/06/12 02:23:46;;;;;;;5.72;2.15;;;;;;;;;;4217966;34;20465;-62
2022/06/12 02:26:16;;;;;;;4.62;1.67;;;;;;;;;;4218023;34;20105;-61
2022/06/12 02:28:47;;;;;;;2.10;1.90;;;;;;;;;;4204981;34;20129;-61
2022/06/12 02:31:21;;;;;;;2.85;2.17;;;;;;;;;;4205061;34;20120;-61
2022/06/12 02:33:52;;;;;;;2.08;1.83;;;;;;;;;;4205199;34;20200;-61
2022/06/12 02:36:25;;;;;;;2.12;1.70;;;;;;;;;;4218011;34;20192;-61
2022/06/12 02:38:56;;;;;;;4.37;2.03;;;;;;;;;;4217934;34;20117;-61
2022/06/12 02:41:31;;;;;;;2.60;1.73;;;;;;;;;;4205342;34;20104;-61
2022/06/12 02:44:02;;;;;;;2.97;1.85;;;;;;;;;;4204942;34;20198;-62
2022/06/12 02:46:33;;;;;;;1.70;1.60;;;;;;;;;;4217905;34;20109;-62
2022/06/12 02:48:59;;;;;;;2.47;1.70;;;;;;;;;;4217902;34;20158;-61
2022/06/12 02:51:34;;;;;;;3.20;1.60;;;;;;;;;;4217817;34;20102;-62
2022/06/12 02:54:12;;;;;;;3.58;1.90;;;;;;;;;;4204779;34;20117;-62
2022/06/12 02:57:03;;;;;;;2.33;1.60;;;;;;;;;;4217554;34;20499;-63
2022/06/12 02:59:47;;;;;;;2.42;1.70;;;;;;;;;;4217712;34;20166;-62
2022/06/12 03:02:22;;;;;;;5.90;1.55;;;;;;;;;;4217828;34;20204;-62
2022/06/12 03:05:06;;;;;;;3.20;1.40;;;;;;;;;;4217721;34;20113;-62
2022/06/12 03:07:33;;;;;;;2.50;1.70;;;;;;;;;;4217642;34;20473;-63
2022/06/12 03:10:04;;;;;;;2.83;1.90;;;;;;;;;;4204675;34;20117;-62
2022/06/12 03:12:32;;;;;;;2.87;1.60;;;;;;;;;;4204996;34;20228;-62
2022/06/12 03:14:59;;;;;;;4.53;1.70;;;;;;;;;;4218800;34;20202;-63
2022/06/12 03:17:26;;;;;;;2.75;1.30;;;;;;;;;;4206662;34;20121;-62
2022/06/12 03:19:54;;;;;;;3.62;1.50;;;;;;;;;;4219684;34;20129;-63
2022/06/12 03:22:41;;;;;;;3.22;1.77;;;;;;;;;;4219600;34;20193;-63
2022/06/12 03:25:37;;;;;;;1.90;1.48;;;;;;;;;;4206758;34;20216;-63
2022/06/12 03:28:19;;;;;;;2.95;1.27;;;;;;;;;;4206632;34;20117;-62
2022/06/12 03:31:08;;;;;;;2.83;1.70;;;;;;;;;;4219585;34;20533;-63
2022/06/12 03:33:46;;;;;;;6.93;1.23;;;;;;;;;;4219418;34;20481;-63
2022/06/12 03:36:19;;;;;;;3.17;1.30;;;;;;;;;;4219770;34;20125;-62
2022/06/12 03:39:00;;;;;;;1.27;1.17;;;;;;;;;;4206763;34;20121;-61
2022/06/12 03:41:35;;;;;;;3.55;1.15;;;;;;;;;;4206608;34;20117;-61
2022/06/12 03:44:07;;;;;;;;;;;;;;;;;;4219989;34;20524;-60
2022/06/12 03:47:06;;;;;;;1.33;1.10;;;;;;;;;;4219824;34;20417;-61
2022/06/12 03:49:56;;;;;;;4.00;1.40;;;;;;;;;;4217776;34;20620;-61
2022/06/12 03:52:27;;;;;;;4.07;1.73;;;;;;;;;;4219244;34;20121;-61
2022/06/12 03:55:10;;;;;;;2.53;1.27;;;;;;;;;;4206672;34;20128;-61
2022/06/12 03:57:51;;;;;;;3.25;1.10;;;;;;;;;;4219623;34;20097;-61
2022/06/12 04:00:19;;;;;;;3.40;1.30;;;;;;;;;;4219389;34;20086;-61
2022/06/12 04:02:52;;;;;;;2.33;1.30;;;;;;;;;;4219271;34;20209;-62
2022/06/12 04:05:25;;;;;;;3.42;1.50;;;;;;;;;;4219328;34;20186;-61
2022/06/12 04:07:53;;;;;;;1.40;1.30;;;;;;;;;;4206436;34;20117;-62
2022/06/12 04:10:23;;;;;;;2.00;1.45;;;;;;;;;;4206531;34;20507;-62
2022/06/12 04:12:49;;;;;;;3.22;1.12;;;;;;;;;;4206289;34;20105;-61
2022/06/12 04:15:34;;;;;;;2.45;1.50;;;;;;;;;;4206569;34;20116;-61
2022/06/12 04:18:01;;;;;;;1.95;1.23;;;;;;;;;;4206229;34;20553;-62
2022/06/12 04:20:39;;;;;;;2.15;1.45;;;;;;;;;;4206291;34;20137;-61
2022/06/12 04:23:10;;;;;;;1.90;1.35;;;;;;;;;;4219234;34;20616;-62
2022/06/12 04:25:51;;;;;;;1.42;1.33;;;;;;;;;;4219118;34;20650;-62
2022/06/12 04:28:25;;;;;;;2.40;1.48;;;;;;;;;;4219138;34;20533;-62
2022/06/12 04:30:53;;;;;;;5.43;1.40;;;;;;;;;;4219330;34;20622;-61
2022/06/12 04:33:42;;;;;;;6.30;1.33;;;;;;;;;;4219181;34;20121;-62
2022/06/12 04:36:10;;;;;;;1.45;1.33;;;;;;;;;;4206205;34;20125;-62
2022/06/12 04:38:37;;;;;;;1.48;1.23;;;;;;;;;;4206299;34;20552;-63
2022/06/12 04:41:05;;;;;;;4.82;1.42;;;;;;;;;;4219006;34;20592;-63
2022/06/12 04:43:31;;;;;;;4.62;1.40;;;;;;;;;;4219193;34;20120;-66
2022/06/12 04:45:57;;;;;;;3.55;1.30;;;;;;;;;;4218960;34;20445;-65
2022/06/12 04:48:38;;;;;;;1.60;1.08;;;;;;;;;;4206024;34;20216;-64
2022/06/12 04:51:06;;;;;;;4.32;1.30;;;;;;;;;;4194761;34;20124;-65
2022/06/12 04:53:32;;;;;;;2.33;1.40;;;;;;;;;;4218971;34;20105;-62
2022/06/12 04:55:59;;;;;;;1.77;1.30;;;;;;;;;;4218801;34;20097;-62
2022/06/12 04:58:25;;;;;;;1.98;1.48;;;;;;;;;;4218929;34;20303;-63
2022/06/12 05:00:51;;;;;;;3.37;1.52;;;;;;;;;;4218702;34;20129;-63
2022/06/12 05:03:17;;;;;;;1.23;1.17;;;;;;;;;;4219131;34;20121;-64
2022/06/12 05:05:43;;;;;;;7.72;2.45;;;;;;;;;;4218739;34;20129;-64
2022/06/12 05:08:10;;;;;;;1.67;1.30;;;;;;;;;;4218528;34;20125;-63
2022/06/12 05:10:36;;;;;;;4.60;1.50;;;;;;;;;;4218753;34;20125;-62
2022/06/12 05:13:03;;;;;;;1.77;1.30;;;;;;;;;;4218570;34;20553;-61
2022/06/12 05:15:29;;;;;;;2.12;1.33;;;;;;;;;;4218971;34;20132;-63
2022/06/12 05:17:55;;;;;;;6.03;1.73;;;;;;;;;;4218513;34;20101;-60
2022/06/12 05:20:24;;;;;;;2.80;1.40;;;;;;;;;;4218705;34;20113;-62
2022/06/12 05:22:51;;;;;;;5.35;1.30;;;;;;;;;;4218465;34;20571;-62
2022/06/12 05:25:17;;;;;;;1.45;1.20;;;;;;;;;;4218574;34;20149;-61
2022/06/12 05:27:45;;;;;;;2.53;1.23;;;;;;;;;;4218548;34;20553;-61
2022/06/12 05:30:14;;;;;;;6.97;1.48;;;;;;;;;;4218533;34;20121;-61
2022/06/12 05:32:40;;;;;;;1.62;1.37;;;;;;;;;;4218400;34;20137;-61
2022/06/12 05:35:07;;;;;;;4.28;1.58;;;;;;;;;;4218529;34;20098;-62
2022/06/12 05:37:34;;;;;;;3.33;1.40;;;;;;;;;;4217923;34;20105;-62
2022/06/12 05:40:00;;;;;;;4.80;1.25;;;;;;;;;;4218428;34;20549;-60
2022/06/12 05:42:26;;;;;;;2.08;1.62;;;;;;;;;;4218293;34;20126;-61
2022/06/12 05:44:52;;;;;;;2.00;1.17;;;;;;;;;;4218371;34;20126;-61
2022/06/12 05:47:18;;;;;;;5.22;1.55;;;;;;;;;;4218288;34;20140;-61
2022/06/12 05:49:44;;;;;;;4.07;1.40;;;;;;;;;;4218625;34;20469;-64
2022/06/12 05:52:10;;;;;;;1.80;1.48;;;;;;;;;;4218201;34;20202;-63
2022/06/12 05:54:36;;;;;;;3.53;1.48;;;;;;;;;;4205432;34;20201;-61
2022/06/12 05:57:03;;;;;;;1.55;1.12;;;;;;;;;;4218133;34;20253;-61
2022/06/12 05:59:29;;;;;;;3.28;1.35;;;;;;;;;;4218291;34;20200;-63
2022/06/12 06:01:55;;;;;;;2.87;1.40;;;;;;;;;;4218213;34;20129;-63
2022/06/12 06:04:22;;;;;;;2.60;1.62;;;;;;;;;;4218228;34;20200;-63
2022/06/12 06:06:51;;;;;;;3.70;1.33;;;;;;;;;;4218016;34;20216;-63
2022/06/12 06:09:17;;;;;;;7.75;1.52;;;;;;;;;;4205189;34;20173;-63
2022/06/12 06:11:44;;;;;;;4.20;1.50;;;;;;;;;;4218150;34;20130;-62
2022/06/12 06:14:10;;;;;;;4.82;1.33;;;;;;;;;;4205267;34;20122;-63
2022/06/12 06:16:37;;;;;;;4.03;1.20;;;;;;;;;;4218172;34;20227;-63
2022/06/12 06:19:04;;;;;;;7.47;1.55;;;;;;;;;;4217306;34;20214;-63
2022/06/12 06:21:30;;;;;;;2.62;1.60;;;;;;;;;;4217905;34;20209;-63
2022/06/12 06:23:56;;;;;;;2.25;1.30;;;;;;;;;;4218379;34;20113;-63
2022/06/12 06:26:23;;;;;;;3.17;1.50;;;;;;;;;;4218330;34;20128;-63
2022/06/12 06:28:50;;;;;;;3.05;1.52;;;;;;;;;;4218090;34;20497;-63
2022/06/12 06:31:17;;;;;;;3.67;1.40;;;;;;;;;;4218051;34;20521;-64
2022/06/12 06:33:43;;;;;;;2.12;1.60;;;;;;;;;;4217707;34;20121;-64
2022/06/12 06:36:15;;;;;;;4.60;1.45;;;;;;;;;;4217548;34;20204;-64
2022/06/12 06:38:41;;;;;;;4.28;1.95;;;;;;;;;;4218054;34;20102;-63
2022/06/12 06:41:07;;;;;;;2.05;1.50;;;;;;;;;;4217887;34;20545;-64
2022/06/12 06:46:13;;;;;;;1.75;1.37;;;;;;;;;;4218105;34;20109;-62
2022/06/12 06:46:20;;;;;;;3.70;1.52;;;;;;;;;;4217784;34;20106;-62
2022/06/12 06:48:46;;;;;;;3.00;1.60;;;;;;;;;;4217893;34;20167;-62
2022/06/12 06:51:12;;;;;;;3.90;1.73;;;;;;;;;;4219971;34;20209;-61
2022/06/12 06:53:38;;;;;;;2.97;1.42;;;;;;;;;;4219946;34;20113;-62
2022/06/12 06:56:05;;;;;;;2.22;1.65;;;;;;;;;;4219867;34;20461;-63
2022/06/12 06:58:32;;;;;;;4.78;1.20;;;;;;;;;;4219618;34;20113;-63
2022/06/12 07:00:58;;;;;;;2.90;1.40;;;;;;;;;;4219795;34;20097;-63
2022/06/12 07:03:24;;;;;;;3.45;1.30;;;;;;;;;;4219780;34;20533;-62
2022/06/12 07:05:51;;;;;;;2.80;1.20;;;;;;;;;;4219777;34;20121;-62
2022/06/12 07:08:18;;;;;;;1.50;1.30;;;;;;;;;;4219595;34;20163;-62
2022/06/12 07:10:45;;;;;;;4.00;1.30;;;;;;;;;;4219790;34;20535;-63
2022/06/12 07:13:11;;;;;;;5.55;2.22;;;;;;;;;;4219605;34;20537;-62
2022/06/12 07:15:38;;;;;;;4.62;1.67;;;;;;;;;;4219728;34;20093;-62
2022/06/12 07:18:06;;;;;;;3.78;1.40;;;;;;;;;;4219775;34;20129;-63
2022/06/12 07:20:35;;;;;;;1.67;1.58;;;;;;;;;;4219699;34;20090;-62
2022/06/12 07:23:03;;;;;;;2.67;1.45;;;;;;;;;;4219519;34;20125;-63
2022/06/12 07:25:33;;;;;;;2.67;1.60;;;;;;;;;;4207026;34;20121;-63
2022/06/12 07:27:59;;;;;;;1.98;1.40;;;;;;;;;;4206741;34;20133;-62
2022/06/12 07:30:25;;;;;;;2.55;1.55;;;;;;;;;;4219468;34;20129;-60
2022/06/12 07:32:51;;;;;;;2.20;1.40;;;;;;;;;;4219479;33;20109;-61
2022/06/12 07:35:19;;;;;;;4.47;1.65;;;;;;;;;;4219536;34;20569;-62
2022/06/12 07:37:46;;;;;;;3.15;2.08;;;;;;;;;;4219437;34;20104;-62
2022/06/12 07:40:16;;;;;;;7.53;1.40;;;;;;;;;;4219510;34;20118;-62
2022/06/12 07:42:43;;;;;;;2.45;1.60;;;;;;;;;;4206693;34;20100;-60
2022/06/12 07:45:10;;;;;;;3.62;1.55;;;;;;;;;;4219675;34;20105;-60
2022/06/12 07:47:36;;;;;;;7.75;1.35;;;;;;;;;;4219524;34;20473;-62
2022/06/12 07:50:03;;;;;;;6.07;1.45;;;;;;;;;;4219474;34;20228;-61
2022/06/12 07:52:30;;;;;;;6.72;1.52;;;;;;;;;;4219388;34;20106;-62
2022/06/12 07:54:59;;;;;;;2.60;1.50;;;;;;;;;;4219396;34;20220;-61
2022/06/12 07:57:25;;;;;;;6.37;1.50;;;;;;;;;;4219214;34;20209;-61
2022/06/12 07:59:51;;;;;;;4.40;1.60;;;;;;;;;;4219246;34;20197;-62
2022/06/12 08:02:17;;;;;;;2.67;1.60;;;;;;;;;;4219203;34;20141;-62
2022/06/12 08:04:43;;;;;;;3.70;1.73;;;;;;;;;;4222247;33;20120;-63
2022/06/12 08:07:09;;;;;;;4.25;1.40;;;;;;;;;;4227101;33;20089;-61
2022/06/12 08:09:35;;;;;;;1.95;1.35;;;;;;;;;;4223869;33;20109;-60
2022/06/12 08:12:01;;;;;;;2.55;1.42;;;;;;;;;;4219070;34;20102;-62
2022/06/12 08:14:27;;;;;;;2.00;1.40;;;;;;;;;;4231905;33;20093;-60
2022/06/12 08:16:53;;;;;;;4.43;2.62;;;;;;;;;;4233141;33;20098;-63
2022/06/12 08:22:24;;;;;;;4.35;1.37;;;;;;;;;;4207298;34;20148;-66
2022/06/12 08:24:50;;;;;;;3.28;1.60;;;;;;;;;;4202877;34;20183;-61
2022/06/12 08:27:16;;;;;;;4.60;1.60;;;;;;;;;;4210286;34;20109;-62
2022/06/12 08:29:42;;;;;;;8.85;2.00;;;;;;;;;;4219027;34;20109;-62
2022/06/12 08:32:14;;;;;;;11.73;1.83;;;;;;;;;;4218994;34;20105;-60
2022/06/12 08:34:54;;;;;;;6.20;1.98;;;;;;;;;;4218867;34;20565;-61
2022/06/12 08:37:24;;;;;;;1.85;1.35;;;;;;;;;;4219150;34;20121;-63
2022/06/12 08:39:51;;;;;;;1.67;1.50;;;;;;;;;;4230765;33;20097;-62
2022/06/12 08:42:30;;;;;;;5.82;1.60;;;;;;;;;;4215201;34;20124;-59
2022/06/12 08:45:07;;;;;;;3.72;1.48;;;;;;;;;;4218826;34;20117;-59
2022/06/12 08:47:39;;;;;;;1.62;1.52;;;;;;;;;;4205933;34;20121;-59
2022/06/12 08:50:23;;;;;;;2.03;1.62;;;;;;;;;;4218828;34;20109;-59
2022/06/12 08:53:11;;;;;;;2.67;1.35;;;;;;;;;;4218208;34;20133;-59
2022/06/12 08:56:08;;;;;;;2.22;1.30;;;;;;;;;;4219101;34;20207;-59
2022/06/12 08:59:07;;;;;;;1.58;1.42;;;;;;;;;;4214916;34;20160;-60
2022/06/12 09:01:41;;;;;;;1.35;1.25;;;;;;;;;;4219061;34;20109;-60
2022/06/12 09:04:12;;;;;;;2.37;1.40;;;;;;;;;;4206608;34;20632;-60
2022/06/12 09:06:46;;;;;;;1.60;1.42;;;;;;;;;;4205835;34;20502;-60
2022/06/12 09:09:39;;;;;;;1.40;1.30;;;;;;;;;;4205635;34;20537;-60
2022/06/12 09:12:17;;;;;;;1.65;1.55;;;;;;;;;;4217920;34;20630;-60
2022/06/12 09:15:15;;;;;;;1.30;1.20;;;;;;;;;;4218418;34;20947;-60
2022/06/12 09:18:03;;;;;;;5.90;1.40;;;;;;;;;;4218587;34;20196;-61
2022/06/12 09:20:48;;;;;;;2.62;1.55;;;;;;;;;;4218844;34;20098;-61
2022/06/12 09:23:16;;;;;;;1.30;1.20;;;;;;;;;;4218812;34;20098;-61
2022/06/12 09:26:00;;;;;;;1.37;1.27;;;;;;;;;;4218574;34;20103;-61
2022/06/12 09:28:50;;;;;;;3.12;1.30;;;;;;;;;;4218367;34;20117;-61
2022/06/12 09:31:30;;;;;;;1.83;1.40;;;;;;;;;;4218979;34;20098;-60
2022/06/12 09:34:08;;;;;;;1.30;1.20;;;;;;;;;;4218464;34;20090;-60
2022/06/12 09:36:34;;;;;;;2.58;1.08;;;;;;;;;;4218809;34;20120;-62
2022/06/12 09:39:18;;;;;;;2.25;1.12;;;;;;;;;;4224138;33;20599;-61
2022/06/12 09:42:12;;;;;;;1.20;1.10;;;;;;;;;;4232512;33;20147;-60
2022/06/12 09:44:45;;;;;;;4.07;1.27;;;;;;;;;;4212600;33;20132;-62
2022/06/12 09:47:46;;;;;;;2.78;1.60;;;;;;;;;;4232535;33;20117;-63
2022/06/12 09:50:24;;;;;;;1.30;1.30;;;;;;;;;;4228427;33;20180;-60
2022/06/12 09:53:00;;;;;;;1.37;1.20;;;;;;;;;;4219562;33;20113;-58
2022/06/12 09:55:28;;;;;;;1.30;1.20;;;;;;;;;;4219543;33;20133;-59
2022/06/12 09:58:00;;;;;;;3.65;1.50;;;;;;;;;;4219571;33;20521;-60
2022/06/12 10:00:33;;;;;;;1.52;1.23;;;;;;;;;;4232325;33;20441;-60
2022/06/12 10:03:18;;;;;;;1.25;1.25;;;;;;;;;;4232292;33;20132;-61
2022/06/12 10:05:49;;;;;;;2.72;1.25;;;;;;;;;;4223472;33;20543;-59
2022/06/12 10:08:20;;;;;;;1.20;1.20;;;;;;;;;;4205374;34;20463;-60
2022/06/12 10:10:59;;;;;;;2.75;1.55;;;;;;;;;;4205250;34;20118;-60
2022/06/12 10:13:32;;;;;;;1.62;1.30;;;;;;;;;;4218262;34;20112;-63
2022/06/12 10:16:02;;;;;;;2.12;1.25;;;;;;;;;;4218167;34;20489;-62
2022/06/12 10:19:23;;;;;;;1.95;1.40;;;;;;;;;;4218248;34;20132;-62
2022/06/12 10:21:53;;;;;;;2.28;1.55;;;;;;;;;;4208984;34;20197;-62
2022/06/12 10:24:19;;;;;;;6.40;1.40;;;;;;;;;;4204857;34;20120;-61
2022/06/12 10:27:07;;;;;;;2.90;1.40;;;;;;;;;;4218059;34;20117;-62
2022/06/12 10:29:45;;;;;;;1.62;1.20;;;;;;;;;;4205251;34;20233;-61
2022/06/12 10:32:18;;;;;;;1.55;1.45;;;;;;;;;;4217981;34;20125;-61
2022/06/12 10:34:44;;;;;;;2.08;1.62;;;;;;;;;;4217797;34;20581;-59
2022/06/12 10:37:20;;;;;;;2.22;1.60;;;;;;;;;;4217897;34;20109;-63
2022/06/12 10:39:59;;;;;;;2.03;1.40;;;;;;;;;;4217753;34;20223;-61
2022/06/12 10:42:51;;;;;;;2.12;1.40;;;;;;;;;;4217880;34;20210;-61
2022/06/12 10:45:25;;;;;;;1.40;1.30;;;;;;;;;;4211369;34;20123;-61
2022/06/12 10:47:53;;;;;;;4.05;1.40;;;;;;;;;;4217805;34;20105;-60
2022/06/12 10:50:35;;;;;;;2.70;1.60;;;;;;;;;;4217787;34;20112;-60
2022/06/12 10:53:13;;;;;;;2.55;1.83;;;;;;;;;;4217840;34;20209;-61
2022/06/12 10:55:45;;;;;;;2.35;1.45;;;;;;;;;;4217718;34;20105;-62
2022/06/12 10:58:29;;;;;;;3.22;1.65;;;;;;;;;;4217760;34;20121;-62
2022/06/12 11:00:57;;;;;;;2.22;1.30;;;;;;;;;;4217686;34;20116;-61
2022/06/12 11:03:40;;;;;;;5.55;1.35;;;;;;;;;;4204638;34;20121;-60
2022/06/12 11:06:21;;;;;;;2.53;1.60;;;;;;;;;;4204557;34;20090;-60
2022/06/12 11:09:18;;;;;;;6.43;1.50;;;;;;;;;;4204731;34;20121;-61
2022/06/12 11:11:47;;;;;;;2.67;1.50;;;;;;;;;;4217606;34;20109;-60
2022/06/12 11:14:28;;;;;;;6.85;1.92;;;;;;;;;;4217724;34;20117;-62
2022/06/12 11:17:23;;;;;;;3.30;1.80;;;;;;;;;;4204567;34;20090;-61
2022/06/12 11:19:56;;;;;;;2.50;1.60;;;;;;;;;;4217478;34;20181;-60
2022/06/12 11:22:59;;;;;;;3.90;1.48;;;;;;;;;;4204529;34;20134;-60
2022/06/12 11:26:03;;;;;;;4.05;1.50;;;;;;;;;;4217445;34;20822;-61
2022/06/12 11:28:52;;;;;;;1.92;1.40;;;;;;;;;;4217466;34;20129;-61
2022/06/12 11:31:26;;;;;;;2.90;1.85;;;;;;;;;;4217383;34;20121;-60
2022/06/12 11:34:11;;;;;;;3.05;1.42;;;;;;;;;;4217410;34;20113;-60
2022/06/12 11:36:58;;;;;;;2.53;1.53;;;;;;;;;;4219174;34;20110;-61
2022/06/12 11:39:34;;;;;;;1.90;1.50;;;;;;;;;;4206544;34;20125;-61
2022/06/12 11:42:16;;;;;;;3.67;1.92;;;;;;;;;;4219528;34;20088;-60
2022/06/12 11:45:01;;;;;;;5.10;1.77;;;;;;;;;;4219296;34;20208;-60
2022/06/12 11:48:05;;;;;;;3.28;1.85;;;;;;;;;;4206730;34;20524;-61
2022/06/12 11:50:49;;;;;;;4.72;1.80;;;;;;;;;;4197875;34;20132;-59
2022/06/12 11:53:36;;;;;;;4.28;1.73;;;;;;;;;;4206516;34;20113;-60
2022/06/12 11:56:21;;;;;;;2.92;1.70;;;;;;;;;;4219334;34;20176;-60
2022/06/12 11:59:03;;;;;;;3.07;1.60;;;;;;;;;;4219381;34;20450;-61
2022/06/12 12:01:59;;;;;;;2.42;1.60;;;;;;;;;;4219400;34;20101;-60
2022/06/12 12:04:49;;;;;;;1.90;1.70;;;;;;;;;;4206507;34;20136;-60
2022/06/12 12:07:42;;;;;;;2.12;1.80;;;;;;;;;;4219249;34;20220;-60
2022/06/12 12:10:18;;;;;;;8.93;3.20;;;;;;;;;;4219187;34;20213;-60
2022/06/12 12:12:48;;;;;;;5.05;1.80;;;;;;;;;;4219520;34;20109;-60
2022/06/12 12:15:20;;;;;;;4.90;2.37;;;;;;;;;;4206180;34;20114;-61
2022/06/12 12:17:47;;;;;;;3.12;2.30;;;;;;;;;;4219131;34;20474;-61
2022/06/12 12:20:22;;;;;;;3.22;1.98;;;;;;;;;;4206400;34;20542;-61
2022/06/12 12:22:58;;;;;;;4.33;2.00;;;;;;;;;;4206557;34;20135;-61
2022/06/12 12:25:41;;;;;;;2.12;1.92;;;;;;;;;;4206206;34;20184;-61
2022/06/12 12:28:22;;;;;;;4.80;3.37;;;;;;;;;;4219050;34;20117;-61
2022/06/12 12:30:50;;;;;;;3.67;2.78;;;;;;;;;;4206023;34;20132;-61
2022/06/12 12:33:17;;;;;;;6.75;2.92;;;;;;;;;;4206025;34;20117;-61
2022/06/12 12:41:40;;;;;;;4.85;3.50;;;;;;;;;;4218853;34;20101;-62
2022/06/12 12:44:06;;;;;;;5.62;2.53;;;;;;;;;;4218968;34;20481;-61
2022/06/12 12:46:50;;;;;;;6.68;2.25;;;;;;;;;;4218026;34;20097;-61
2022/06/12 12:49:32;;;;;;;3.75;2.03;;;;;;;;;;4218802;34;20117;-61
2022/06/12 12:52:19;;;;;;;4.22;2.17;;;;;;;;;;4218870;34;20206;-61
2022/06/12 12:54:49;;;;;;;4.12;1.73;;;;;;;;;;4218881;34;20128;-61
2022/06/12 12:57:18;;;;;;;5.60;1.90;;;;;;;;;;4218726;34;20217;-61
2022/06/12 12:59:48;;;;;;;3.55;1.90;;;;;;;;;;4205891;34;20537;-62
2022/06/12 13:02:33;;;;;;;2.28;1.45;;;;;;;;;;4218818;34;20278;-61
2022/06/12 13:05:01;;;;;;;5.30;2.03;;;;;;;;;;4205766;34;20121;-61
2022/06/12 13:07:39;;;;;;;2.97;1.80;;;;;;;;;;4216702;34;20109;-62
2022/06/12 13:10:14;;;;;;;5.60;1.52;;;;;;;;;;4218589;34;20557;-61
2022/06/12 13:13:18;;;;;;;7.20;2.08;;;;;;;;;;4218827;34;20116;-62
2022/06/12 13:15:54;;;;;;;6.10;1.80;;;;;;;;;;4161302;34;20102;-61
2022/06/12 13:18:44;;;;;;;3.37;1.90;;;;;;;;;;4210869;34;20129;-62
2022/06/12 13:21:15;;;;;;;4.75;2.17;;;;;;;;;;4218752;34;20598;-61
2022/06/12 13:23:42;;;;;;;5.53;1.80;;;;;;;;;;4218844;34;20113;-62
2022/06/12 13:26:13;;;;;;;6.62;2.53;;;;;;;;;;4218559;34;20116;-62
2022/06/12 13:28:40;;;;;;;9.25;2.53;;;;;;;;;;4218716;34;20125;-61
2022/06/12 13:31:17;;;;;;;9.30;2.55;;;;;;;;;;4218496;34;20102;-61
2022/06/12 13:33:54;;;;;;;4.20;1.70;;;;;;;;;;4218557;33;20125;-61
2022/06/12 13:36:40;;;;;;;2.03;1.60;;;;;;;;;;4218566;34;20261;-61
2022/06/12 13:39:18;;;;;;;2.80;1.60;;;;;;;;;;4218532;34;20218;-61
2022/06/12 13:41:47;;;;;;;4.53;2.30;;;;;;;;;;4218466;34;20442;-62
2022/06/12 13:44:24;;;;;;;4.45;1.70;;;;;;;;;;4205565;34;20116;-62
2022/06/12 13:46:50;;;;;;;4.30;1.98;;;;;;;;;;4218563;34;20123;-59
2022/06/12 13:49:27;;;;;;;3.67;1.75;;;;;;;;;;4218330;34;20525;-61
2022/06/12 13:51:58;;;;;;;5.95;1.83;;;;;;;;;;4218579;34;20205;-62
2022/06/12 13:54:26;;;;;;;2.20;1.80;;;;;;;;;;4218360;34;20209;-60
2022/06/12 13:57:04;;;;;;;3.62;2.30;;;;;;;;;;4218361;34;20114;-60
2022/06/12 13:59:46;;;;;;;3.08;1.90;;;;;;;;;;4205319;34;20132;-61
2022/06/12 14:02:23;;;;;;;2.17;1.67;;;;;;;;;;4218288;34;20201;-60
2022/06/12 14:05:25;;;;;;;4.70;2.28;;;;;;;;;;4218187;34;20122;-64
2022/06/12 14:07:52;;;;;;;6.50;2.03;;;;;;;;;;4196355;34;20133;-60
2022/06/12 14:10:46;;;;;;;6.25;2.03;;;;;;;;;;4205318;34;20208;-61
2022/06/12 14:13:31;;;;;;;2.03;1.83;;;;;;;;;;4205389;34;20133;-61
2022/06/12 14:16:08;;;;;;;5.22;1.70;;;;;;;;;;4218145;34;20522;-60
2022/06/12 14:18:34;;;;;;;1.52;1.42;;;;;;;;;;4216684;34;20117;-60
2022/06/12 14:21:29;;;;;;;2.83;1.80;;;;;;;;;;4218124;34;20433;-60
2022/06/12 14:24:14;;;;;;;3.17;1.70;;;;;;;;;;4212487;34;20481;-60
2022/06/12 14:26:42;;;;;;;3.85;1.70;;;;;;;;;;4218012;34;20117;-61
2022/06/12 14:29:32;;;;;;;5.57;1.65;;;;;;;;;;4217987;34;20105;-59
2022/06/12 14:32:16;;;;;;;2.65;1.77;;;;;;;;;;4218029;34;20224;-60
2022/06/12 14:34:45;;;;;;;3.13;1.43;;;;;;;;;;4218198;34;20140;-60
2022/06/12 14:37:26;;;;;;;4.30;2.30;;;;;;;;;;4204892;34;20654;-60
2022/06/12 14:39:52;;;;;;;3.80;1.85;;;;;;;;;;4205023;34;20522;-60
2022/06/12 14:42:20;;;;;;;3.80;2.28;;;;;;;;;;4205003;34;20102;-60
2022/06/12 14:44:46;;;;;;;6.68;1.70;;;;;;;;;;4217877;34;20201;-60
2022/06/12 14:47:34;;;;;;;3.30;1.60;;;;;;;;;;4217853;34;20200;-60
2022/06/12 14:50:00;;;;;;;1.80;1.65;;;;;;;;;;4217756;34;20114;-60
2022/06/12 14:52:30;;;;;;;3.45;1.60;;;;;;;;;;4217700;34;20130;-61
2022/06/12 14:54:57;;;;;;;4.28;1.75;;;;;;;;;;4217773;34;20133;-61
2022/06/12 14:57:26;;;;;;;6.90;2.62;;;;;;;;;;4217831;34;20101;-60
2022/06/12 14:59:52;;;;;;;2.80;2.20;;;;;;;;;;4217737;34;20105;-61
2022/06/12 15:02:27;;;;;;;2.35;1.73;;;;;;;;;;4217871;34;20121;-60
2022/06/12 15:04:53;;;;;;;1.60;1.50;;;;;;;;;;4217595;34;20205;-61
2022/06/12 15:07:20;;;;;;;9.52;1.60;;;;;;;;;;4217729;34;20157;-61
2022/06/12 15:09:46;;;;;;;1.87;1.75;;;;;;;;;;4217672;34;20168;-61
2022/06/12 15:12:15;;;;;;;2.60;1.70;;;;;;;;;;4219653;34;20118;-61
2022/06/12 15:14:41;;;;;;;3.28;1.90;;;;;;;;;;4219663;34;20661;-61
2022/06/12 15:17:17;;;;;;;3.30;1.80;;;;;;;;;;4219652;34;20224;-60
2022/06/12 15:19:43;;;;;;;2.37;2.00;;;;;;;;;;4219655;34;20112;-61
2022/06/12 15:22:18;;;;;;;2.85;2.08;;;;;;;;;;4219755;34;20128;-61
2022/06/12 15:24:45;;;;;;;8.98;2.53;;;;;;;;;;4219672;34;20178;-61
2022/06/12 15:29:56;;;;;;;;;;;;;;;;;;4219938;34;20134;-61
2022/06/12 15:32:27;;;;;;;6.28;2.28;;;;;;;;;;4219410;34;20004;-61
2022/06/12 15:34:58;;;;;;;7.20;2.35;;;;;;;;;;4219606;34;20136;-60
2022/06/12 15:37:29;;;;;;;6.12;2.80;;;;;;;;;;4219526;34;20121;-60
2022/06/12 15:39:56;;;;;;;5.95;2.45;;;;;;;;;;4219492;34;20188;-61
2022/06/12 15:42:22;;;;;;;3.47;2.17;;;;;;;;;;4219384;34;20521;-61
2022/06/12 15:44:48;;;;;;;9.05;2.83;;;;;;;;;;4219455;34;20136;-60
2022/06/12 15:47:15;;;;;;;5.50;2.70;;;;;;;;;;4219346;34;20201;-59
2022/06/12 15:49:41;;;;;;;5.20;3.80;;;;;;;;;;4219517;34;20847;-62
2022/06/12 15:52:07;;;;;;;2.55;1.90;;;;;;;;;;4206555;34;20105;-63
2022/06/12 15:54:34;;;;;;;7.90;1.90;;;;;;;;;;4219705;34;20124;-63
2022/06/12 15:57:00;;;;;;;5.28;1.80;;;;;;;;;;4206248;34;20548;-61
2022/06/12 15:59:32;;;;;;;4.70;2.53;;;;;;;;;;4219319;34;20209;-62
2022/06/12 16:01:59;;;;;;;3.12;1.90;;;;;;;;;;4219255;34;20098;-62
2022/06/12 16:04:26;;;;;;;4.55;1.90;;;;;;;;;;4219275;34;20089;-64
2022/06/12 16:06:52;;;;;;;2.65;1.80;;;;;;;;;;4219258;34;20140;-64